createdAt,value
2019-02-16T00:00:15.125Z,101595.14
2019-02-16T00:02:43.372Z,101596.10
2019-02-16T00:05:11.690Z,101595.14
2019-02-16T00:07:40.017Z,101591.92
2019-02-16T00:10:08.382Z,101596.11
2019-02-16T00:12:36.692Z,101592.72
2019-02-16T00:15:05.257Z,101593.52
2019-02-16T00:17:33.580Z,101594.75
2019-02-16T00:20:01.876Z,101597.88
2019-02-16T00:22:30.118Z,101598.66
2019-02-16T00:24:58.352Z,101602.27
2019-02-16T00:27:26.629Z,101596.45
2019-02-16T00:29:54.936Z,101598.41
2019-02-16T00:32:23.315Z,101601.48
2019-02-16T00:34:51.670Z,101598.80
2019-02-16T00:37:19.935Z,101598.08
2019-02-16T00:39:48.307Z,101596.80
2019-02-16T00:42:16.785Z,101591.48
2019-02-16T00:44:45.158Z,101595.94
2019-02-16T00:47:13.639Z,101597.45
2019-02-16T00:49:41.863Z,101591.00
2019-02-16T00:52:10.063Z,101587.23
2019-02-16T00:54:38.278Z,101586.79
2019-02-16T00:57:06.464Z,101582.23
2019-02-16T00:59:34.826Z,101582.20
2019-02-16T01:04:39.221Z,101570.98
2019-02-16T01:07:08.310Z,101566.86
2019-02-16T01:09:36.632Z,101570.53
2019-02-16T01:12:04.884Z,101574.16
2019-02-16T01:14:33.182Z,101564.24
2019-02-16T01:17:01.482Z,101565.66
2019-02-16T01:19:29.756Z,101561.22
2019-02-16T01:21:58.059Z,101554.62
2019-02-16T01:24:26.325Z,101551.63
2019-02-16T01:26:54.847Z,101548.24
2019-02-16T01:29:23.122Z,101545.37
2019-02-16T01:31:51.386Z,101543.70
2019-02-16T01:34:19.708Z,101534.23
2019-02-16T01:36:48.065Z,101536.96
2019-02-16T01:39:16.323Z,101539.55
2019-02-16T01:41:44.625Z,101534.39
2019-02-16T01:44:12.918Z,101529.87
2019-02-16T01:46:41.120Z,101531.63
2019-02-16T01:49:09.304Z,101533.92
2019-02-16T01:51:37.509Z,101533.26
2019-02-16T01:54:05.775Z,101531.19
2019-02-16T01:56:34.023Z,101530.45
2019-02-16T01:59:02.226Z,101525.33
2019-02-16T02:01:30.522Z,101526.25
2019-02-16T02:03:59.128Z,101526.41
2019-02-16T02:06:27.457Z,101524.92
2019-02-16T02:08:55.900Z,101521.63
2019-02-16T02:11:24.289Z,101521.41
2019-02-16T02:13:52.705Z,101517.06
2019-02-16T02:16:21.007Z,101507.83
2019-02-16T02:18:49.264Z,101510.11
2019-02-16T02:21:17.559Z,101502.84
2019-02-16T02:23:45.903Z,101501.52
2019-02-16T02:26:14.214Z,101496.16
2019-02-16T02:28:42.642Z,101498.28
2019-02-16T02:31:11.005Z,101493.95
2019-02-16T02:33:39.299Z,101495.98
2019-02-16T02:36:07.540Z,101484.76
2019-02-16T02:38:35.967Z,101485.05
2019-02-16T02:41:04.258Z,101480.41
2019-02-16T02:43:32.560Z,101476.52
2019-02-16T02:46:00.766Z,101476.56
2019-02-16T02:48:29.006Z,101479.98
2019-02-16T02:50:57.291Z,101474.39
2019-02-16T02:53:31.258Z,101474.11
2019-02-16T02:55:55.601Z,101471.92
2019-02-16T02:58:23.834Z,101469.85
2019-02-16T03:00:52.182Z,101467.55
2019-02-16T03:03:20.509Z,101467.37
2019-02-16T03:05:48.768Z,101463.75
2019-02-16T03:08:17.057Z,101468.05
2019-02-16T03:10:45.289Z,101461.52
2019-02-16T03:13:13.592Z,101456.68
2019-02-16T03:15:41.900Z,101449.39
2019-02-16T03:18:10.129Z,101455.27
2019-02-16T03:20:38.425Z,101451.30
2019-02-16T03:23:25.695Z,101454.58
2019-02-16T03:26:17.976Z,101454.92
2019-02-16T03:29:12.448Z,101461.37
2019-02-16T03:32:12.012Z,101451.05
2019-02-16T03:35:08.262Z,101449.94
2019-02-16T03:38:00.179Z,101442.31
2019-02-16T03:40:28.578Z,101450.77
2019-02-16T03:42:56.816Z,101447.99
2019-02-16T03:45:25.110Z,101449.59
2019-02-16T03:47:53.490Z,101454.19
2019-02-16T03:50:21.779Z,101452.38
2019-02-16T03:52:50.053Z,101445.47
2019-02-16T03:55:18.330Z,101441.13
2019-02-16T03:57:46.766Z,101443.40
2019-02-16T04:00:15.088Z,101445.42
2019-02-16T04:02:43.527Z,101442.80
2019-02-16T04:05:11.838Z,101443.91
2019-02-16T04:07:40.141Z,101445.31
2019-02-16T04:10:08.595Z,101447.79
2019-02-16T04:12:36.908Z,101442.12
2019-02-16T04:15:05.409Z,101444.70
2019-02-16T04:17:33.643Z,101440.64
2019-02-16T04:20:02.027Z,101440.15
2019-02-16T04:22:30.561Z,101441.58
2019-02-16T04:24:58.883Z,101433.02
2019-02-16T04:27:27.185Z,101429.39
2019-02-16T04:30:03.391Z,101421.72
2019-02-16T04:32:31.720Z,101420.34
2019-02-16T04:35:00.508Z,101408.59
2019-02-16T04:37:28.646Z,101417.88
2019-02-16T04:39:56.924Z,101416.45
2019-02-16T04:42:25.182Z,101417.81
2019-02-16T04:44:53.563Z,101417.98
2019-02-16T04:47:21.790Z,101422.75
2019-02-16T04:49:50.125Z,101423.05
2019-02-16T04:52:18.315Z,101424.62
2019-02-16T04:54:46.773Z,101421.94
2019-02-16T04:57:15.156Z,101421.01
2019-02-16T04:59:43.337Z,101416.06
2019-02-16T05:02:11.574Z,101413.70
2019-02-16T05:04:39.823Z,101413.80
2019-02-16T05:07:08.388Z,101419.46
2019-02-16T05:09:36.713Z,101414.02
2019-02-16T05:12:04.987Z,101413.26
2019-02-16T05:14:33.284Z,101418.03
2019-02-16T05:17:01.556Z,101413.14
2019-02-16T05:19:29.831Z,101413.97
2019-02-16T05:21:58.048Z,101405.95
2019-02-16T05:24:26.247Z,101412.87
2019-02-16T05:26:54.436Z,101404.92
2019-02-16T05:29:22.763Z,101404.52
2019-02-16T05:31:50.967Z,101404.14
2019-02-16T05:34:19.248Z,101407.30
2019-02-16T05:36:47.604Z,101402.44
2019-02-16T05:39:15.945Z,101400.28
2019-02-16T05:41:44.401Z,101401.44
2019-02-16T05:44:12.602Z,101394.75
2019-02-16T05:46:41.080Z,101396.95
2019-02-16T05:49:09.359Z,101396.83
2019-02-16T05:51:37.590Z,101401.64
2019-02-16T05:54:05.888Z,101401.40
2019-02-16T05:56:34.251Z,101402.38
2019-02-16T05:59:02.608Z,101396.75
2019-02-16T06:01:30.873Z,101393.77
2019-02-16T06:03:59.144Z,101398.20
2019-02-16T06:06:27.403Z,101397.22
2019-02-16T06:08:55.651Z,101403.59
2019-02-16T06:11:23.909Z,101400.02
2019-02-16T06:13:52.234Z,101408.62
2019-02-16T06:16:20.577Z,101408.17
2019-02-16T06:18:48.919Z,101401.40
2019-02-16T06:21:17.227Z,101414.42
2019-02-16T06:23:45.443Z,101413.68
2019-02-16T06:26:13.620Z,101417.33
2019-02-16T06:28:41.849Z,101421.02
2019-02-16T06:31:10.164Z,101420.64
2019-02-16T06:33:38.440Z,101422.28
2019-02-16T06:36:25.739Z,101423.91
2019-02-16T06:38:54.016Z,101418.31
2019-02-16T06:41:22.315Z,101417.57
2019-02-16T06:43:50.737Z,101423.44
2019-02-16T06:46:19.070Z,101425.78
2019-02-16T06:48:47.437Z,101425.83
2019-02-16T06:51:15.731Z,101421.59
2019-02-16T06:53:44.213Z,101424.20
2019-02-16T06:56:31.374Z,101418.95
2019-02-16T06:58:59.956Z,101411.79
2019-02-16T07:01:28.253Z,101413.13
2019-02-16T07:03:56.494Z,101419.45
2019-02-16T07:06:24.757Z,101418.24
2019-02-16T07:08:53.208Z,101425.41
2019-02-16T07:11:21.506Z,101419.44
2019-02-16T07:13:49.728Z,101417.92
2019-02-16T07:16:42.741Z,101416.09
2019-02-16T07:19:21.326Z,101415.94
2019-02-16T07:21:49.581Z,101415.61
2019-02-16T07:24:17.897Z,101425.71
2019-02-16T07:26:46.129Z,101430.44
2019-02-16T07:29:14.507Z,101424.47
2019-02-16T07:31:43.081Z,101427.11
2019-02-16T07:34:11.325Z,101425.30
2019-02-16T07:36:39.563Z,101426.05
2019-02-16T07:39:08.914Z,101434.29
2019-02-16T07:41:37.118Z,101431.47
2019-02-16T07:47:15.856Z,101427.55
2019-02-16T07:49:59.172Z,101423.12
2019-02-16T07:52:46.340Z,101422.66
2019-02-16T07:55:27.125Z,101425.77
2019-02-16T07:58:13.364Z,101429.11
2019-02-16T08:01:09.570Z,101435.69
2019-02-16T08:03:44.602Z,101440.34
2019-02-16T08:06:31.857Z,101440.16
2019-02-16T08:09:17.188Z,101442.27
2019-02-16T08:12:03.196Z,101437.64
2019-02-16T08:15:00.322Z,101441.34
2019-02-16T08:17:50.565Z,101444.19
2019-02-16T08:20:37.783Z,101440.84
2019-02-16T08:23:27.749Z,101434.92
2019-02-16T08:26:15.145Z,101427.10
2019-02-16T08:28:54.851Z,101427.55
2019-02-16T08:31:28.814Z,101423.94
2019-02-16T08:34:16.555Z,101429.24
2019-02-16T08:37:09.993Z,101425.86
2019-02-16T08:39:53.308Z,101422.17
2019-02-16T08:42:40.929Z,101426.05
2019-02-16T08:45:37.513Z,101431.16
2019-02-16T08:48:15.989Z,101426.63
2019-02-16T08:50:52.272Z,101425.20
2019-02-16T08:53:38.270Z,101429.12
2019-02-16T08:56:30.473Z,101427.06
2019-02-16T08:59:26.659Z,101423.63
2019-02-16T09:02:13.880Z,101420.39
2019-02-16T09:04:52.267Z,101430.95
2019-02-16T09:07:39.390Z,101422.56
2019-02-16T09:10:27.240Z,101433.00
2019-02-16T09:13:14.535Z,101422.94
2019-02-16T09:16:01.860Z,101415.25
2019-02-16T09:18:45.426Z,101414.47
2019-02-16T09:21:32.551Z,101408.47
2019-02-16T09:24:22.872Z,101407.45
2019-02-16T09:27:15.283Z,101391.97
2019-02-16T09:29:51.182Z,101397.34
2019-02-16T09:32:33.454Z,101399.69
2019-02-16T09:35:12.222Z,101404.04
2019-02-16T09:37:51.912Z,101398.05
2019-02-16T09:40:39.126Z,101394.27
2019-02-16T09:43:35.675Z,101396.74
2019-02-16T09:46:35.397Z,101398.67
2019-02-16T09:49:12.638Z,101399.85
2019-02-16T09:51:59.799Z,101399.44
2019-02-16T09:54:45.608Z,101395.51
2019-02-16T09:57:32.817Z,101399.95
2019-02-16T10:00:11.590Z,101410.05
2019-02-16T10:03:57.569Z,101401.58
2019-02-16T10:06:00.193Z,101405.41
2019-02-16T10:08:46.025Z,101406.48
2019-02-16T10:11:34.466Z,101405.61
2019-02-16T10:14:20.441Z,101406.83
2019-02-16T10:17:01.982Z,101405.05
2019-02-16T10:19:49.124Z,101404.40
2019-02-16T10:22:37.207Z,101419.27
2019-02-16T10:25:24.545Z,101410.92
2019-02-16T10:28:10.665Z,101415.23
2019-02-16T10:31:00.907Z,101413.05
2019-02-16T10:33:46.968Z,101407.27
2019-02-16T10:36:52.480Z,101415.00
2019-02-16T10:39:42.637Z,101421.98
2019-02-16T10:42:30.295Z,101422.80
2019-02-16T10:45:04.565Z,101424.20
2019-02-16T10:47:54.877Z,101417.19
2019-02-16T10:50:38.610Z,101414.34
2019-02-16T10:53:26.091Z,101414.92
2019-02-16T10:56:01.715Z,101412.33
2019-02-16T10:58:42.147Z,101413.20
2019-02-16T11:01:34.291Z,101414.59
2019-02-16T11:04:16.494Z,101412.20
2019-02-16T11:07:06.836Z,101406.52
2019-02-16T11:09:42.286Z,101402.08
2019-02-16T11:12:31.793Z,101407.95
2019-02-16T11:15:24.934Z,101402.68
2019-02-16T11:18:10.746Z,101402.05
2019-02-16T11:20:56.620Z,101404.62
2019-02-16T11:23:52.238Z,101406.56
2019-02-16T11:26:28.718Z,101404.30
2019-02-16T11:29:11.269Z,101398.63
2019-02-16T11:32:01.698Z,101401.05
2019-02-16T11:34:46.205Z,101394.03
2019-02-16T11:37:19.202Z,101396.13
2019-02-16T11:39:57.284Z,101399.61
2019-02-16T11:42:47.577Z,101399.36
2019-02-16T11:45:28.779Z,101401.53
2019-02-16T11:48:09.213Z,101397.53
2019-02-16T11:50:51.460Z,101395.30
2019-02-16T11:53:41.561Z,101394.96
2019-02-16T11:56:30.741Z,101386.66
2019-02-16T11:59:17.868Z,101393.22
2019-02-16T12:02:08.066Z,101383.32
2019-02-16T12:04:58.403Z,101377.23
2019-02-16T12:07:42.647Z,101374.83
2019-02-16T12:10:35.818Z,101374.51
2019-02-16T12:13:26.571Z,101378.70
2019-02-16T12:16:26.079Z,101376.48
2019-02-16T12:19:32.038Z,101373.70
2019-02-16T12:22:25.948Z,101374.85
2019-02-16T12:25:12.070Z,101383.73
2019-02-16T12:28:01.261Z,101373.63
2019-02-16T12:30:51.600Z,101373.38
2019-02-16T12:33:38.287Z,101373.39
2019-02-16T12:36:24.490Z,101366.74
2019-02-16T12:39:11.744Z,101366.63
2019-02-16T12:41:50.452Z,101360.70
2019-02-16T12:44:55.918Z,101358.34
2019-02-16T12:47:46.263Z,101353.99
2019-02-16T12:50:33.426Z,101354.22
2019-02-16T12:53:20.694Z,101349.22
2019-02-16T12:56:06.606Z,101349.56
2019-02-16T12:58:49.122Z,101352.77
2019-02-16T13:01:36.417Z,101343.94
2019-02-16T13:04:23.663Z,101349.91
2019-02-16T13:07:11.189Z,101349.10
2019-02-16T13:09:58.613Z,101347.56
2019-02-16T13:12:39.213Z,101343.31
2019-02-16T13:15:32.915Z,101344.58
2019-02-16T13:18:28.308Z,101336.80
2019-02-16T13:21:18.548Z,101333.42
2019-02-16T13:24:00.105Z,101328.92
2019-02-16T13:26:43.817Z,101329.66
2019-02-16T13:29:37.370Z,101327.09
2019-02-16T13:32:23.279Z,101320.64
2019-02-16T13:35:09.282Z,101328.06
2019-02-16T13:37:48.450Z,101324.27
2019-02-16T13:40:44.670Z,101326.06
2019-02-16T13:43:41.336Z,101320.96
2019-02-16T13:46:27.198Z,101324.49
2019-02-16T13:49:17.386Z,101330.77
2019-02-16T13:52:10.666Z,101317.17
2019-02-16T13:54:53.049Z,101316.32
2019-02-16T13:57:38.761Z,101316.91
2019-02-16T14:00:27.952Z,101314.84
2019-02-16T14:03:17.993Z,101312.09
2019-02-16T14:06:14.911Z,101313.03
2019-02-16T14:09:17.202Z,101313.69
2019-02-16T14:12:13.697Z,101310.92
2019-02-16T14:14:48.823Z,101304.54
2019-02-16T14:17:34.839Z,101195.00
2019-02-16T14:20:03.255Z,101297.05
2019-02-16T14:22:31.770Z,101292.73
2019-02-16T14:25:02.178Z,101289.01
2019-02-16T14:27:30.518Z,101278.63
2019-02-16T14:29:58.869Z,101280.28
2019-02-16T14:32:27.589Z,101277.66
2019-02-16T14:34:56.346Z,101282.69
2019-02-16T14:37:55.776Z,101276.58
2019-02-16T14:40:27.704Z,101272.58
2019-02-16T14:42:56.254Z,101270.16
2019-02-16T14:45:24.499Z,101264.35
2019-02-16T14:47:57.576Z,101270.31
2019-02-16T14:50:25.868Z,101268.38
2019-02-16T14:52:54.378Z,101268.47
2019-02-16T14:55:22.771Z,101274.19
2019-02-16T14:57:51.170Z,101273.09
2019-02-16T15:00:20.361Z,101274.38
2019-02-16T15:02:49.023Z,101266.88
2019-02-16T15:05:17.459Z,101265.82
2019-02-16T15:07:45.875Z,101265.47
2019-02-16T15:10:14.206Z,101265.59
2019-02-16T15:12:42.856Z,101260.45
2019-02-16T15:15:11.116Z,101264.72
2019-02-16T15:17:39.453Z,101273.22
2019-02-16T15:20:09.264Z,101272.16
2019-02-16T15:22:37.483Z,101265.80
2019-02-16T15:25:06.327Z,101274.25
2019-02-16T15:27:34.515Z,101268.77
2019-02-16T15:30:03.029Z,101268.77
2019-02-16T15:32:31.318Z,101263.58
2019-02-16T15:34:59.483Z,101265.39
2019-02-16T15:37:27.778Z,101270.41
2019-02-16T15:39:55.992Z,101266.52
2019-02-16T15:42:24.389Z,101182.02
2019-02-16T15:44:52.657Z,101256.22
2019-02-16T15:47:20.878Z,101251.02
2019-02-16T15:49:49.074Z,101258.53
2019-02-16T15:52:17.476Z,101254.36
2019-02-16T15:54:46.099Z,101249.58
2019-02-16T15:57:14.402Z,101253.31
2019-02-16T15:59:42.633Z,101253.27
2019-02-16T16:02:10.874Z,101255.76
2019-02-16T16:04:39.230Z,101259.41
2019-02-16T16:07:12.581Z,101269.48
2019-02-16T16:10:08.962Z,101277.28
2019-02-16T16:12:56.843Z,101275.80
2019-02-16T16:15:44.799Z,101273.67
2019-02-16T16:18:23.048Z,101275.14
2019-02-16T16:21:09.036Z,101275.70
2019-02-16T16:23:56.287Z,101272.86
2019-02-16T16:26:49.415Z,101272.85
2019-02-16T16:29:54.794Z,101276.94
2019-02-16T16:32:32.691Z,101287.55
2019-02-16T16:35:13.128Z,101295.68
2019-02-16T16:38:02.569Z,101298.83
2019-02-16T16:40:52.148Z,101294.63
2019-02-16T16:43:31.971Z,101293.12
2019-02-16T16:46:21.237Z,101294.48
2019-02-16T16:49:20.618Z,101294.37
2019-02-16T16:52:14.202Z,101288.03
2019-02-16T16:54:58.951Z,101301.45
2019-02-16T16:57:44.740Z,101302.30
2019-02-16T17:00:34.934Z,101309.01
2019-02-16T17:03:21.280Z,101310.09
2019-02-16T17:06:09.055Z,101313.39
2019-02-16T17:08:59.491Z,101309.16
2019-02-16T17:11:46.712Z,101312.59
2019-02-16T17:14:22.740Z,101312.77
2019-02-16T17:17:13.152Z,101310.81
2019-02-16T17:20:15.834Z,101308.84
2019-02-16T17:23:06.164Z,101313.27
2019-02-16T17:25:52.138Z,101313.19
2019-02-16T17:28:39.994Z,101318.05
2019-02-16T17:31:26.449Z,101320.53
2019-02-16T17:34:12.438Z,101324.62
2019-02-16T17:36:49.516Z,101317.34
2019-02-16T17:39:31.471Z,101318.29
2019-02-16T17:42:20.705Z,101318.07
2019-02-16T17:45:06.596Z,101315.80
2019-02-16T17:48:11.729Z,101327.34
2019-02-16T17:50:49.179Z,101326.13
2019-02-16T17:53:44.893Z,101327.94
2019-02-16T17:56:18.687Z,101326.72
2019-02-16T17:59:06.002Z,101327.33
2019-02-16T18:01:51.884Z,101335.22
2019-02-16T18:04:39.172Z,101329.73
2019-02-16T18:07:26.340Z,101325.47
2019-02-16T18:10:26.154Z,101329.06
2019-02-16T18:13:13.490Z,101333.61
2019-02-16T18:15:59.454Z,101329.81
2019-02-16T18:18:46.662Z,101329.44
2019-02-16T18:21:46.507Z,101322.43
2019-02-16T18:24:25.111Z,101324.33
2019-02-16T18:27:02.943Z,101324.08
2019-02-16T18:29:51.889Z,101321.93
2019-02-16T18:32:42.173Z,101324.11
2019-02-16T18:35:28.663Z,101323.32
2019-02-16T18:38:19.080Z,101316.35
2019-02-16T18:41:05.182Z,101320.03
2019-02-16T18:43:54.400Z,101317.78
2019-02-16T18:46:41.520Z,101321.77
2019-02-16T18:49:29.114Z,101311.63
2019-02-16T18:52:23.092Z,101305.91
2019-02-16T18:55:16.006Z,101309.55
2019-02-16T18:58:06.439Z,101314.92
2019-02-16T19:00:50.803Z,101313.55
2019-02-16T19:03:37.971Z,101313.98
2019-02-16T19:06:25.377Z,101320.22
2019-02-16T19:09:15.606Z,101315.37
2019-02-16T19:12:02.204Z,101314.94
2019-02-16T19:14:55.721Z,101318.13
2019-02-16T19:17:48.740Z,101316.81
2019-02-16T19:20:42.751Z,101317.23
2019-02-16T19:23:38.979Z,101323.89
2019-02-16T19:26:26.235Z,101319.91
2019-02-16T19:29:05.241Z,101326.12
2019-02-16T19:31:42.923Z,101323.02
2019-02-16T19:34:28.814Z,101323.47
2019-02-16T19:37:19.058Z,101326.11
2019-02-16T19:40:09.527Z,101327.01
2019-02-16T19:42:47.190Z,101329.22
2019-02-16T19:45:32.065Z,101335.40
2019-02-16T19:48:20.083Z,101332.30
2019-02-16T19:51:08.650Z,101332.27
2019-02-16T19:54:03.712Z,101337.57
2019-02-16T19:56:51.748Z,101329.61
2019-02-16T19:59:39.702Z,101335.37
2019-02-16T20:02:25.513Z,101333.58
2019-02-16T20:05:16.252Z,101331.80
2019-02-16T20:08:07.593Z,101337.09
2019-02-16T20:10:48.303Z,101332.63
2019-02-16T20:13:34.922Z,101331.25
2019-02-16T20:16:12.896Z,101325.92
2019-02-16T20:18:59.658Z,101333.89
2019-02-16T20:21:45.901Z,101334.30
2019-02-16T20:24:33.894Z,101334.13
2019-02-16T20:27:15.915Z,101335.84
2019-02-16T20:30:11.372Z,101335.92
2019-02-16T20:32:59.141Z,101330.00
2019-02-16T20:35:46.005Z,101326.63
2019-02-16T20:38:23.833Z,101337.11
2019-02-16T20:41:26.251Z,101338.92
2019-02-16T20:44:13.764Z,101344.20
2019-02-16T20:47:02.681Z,101344.19
2019-02-16T20:49:49.867Z,101345.44
2019-02-16T20:52:25.390Z,101344.10
2019-02-16T20:55:18.657Z,101347.23
2019-02-16T20:57:57.583Z,101247.45
2019-02-16T21:00:43.836Z,101344.44
2019-02-16T21:03:22.007Z,101343.13
2019-02-16T21:06:12.666Z,101342.61
2019-02-16T21:09:00.399Z,101338.58
2019-02-16T21:11:47.703Z,101338.08
2019-02-16T21:14:41.353Z,101335.44
2019-02-16T21:17:28.693Z,101342.91
2019-02-16T21:20:18.981Z,101336.65
2019-02-16T21:23:05.230Z,101335.17
2019-02-16T21:25:46.683Z,101330.69
2019-02-16T21:28:24.291Z,101338.53
2019-02-16T21:31:11.179Z,101339.91
2019-02-16T21:33:58.392Z,101339.28
2019-02-16T21:36:41.150Z,101338.67
2019-02-16T21:39:28.376Z,101341.98
2019-02-16T21:42:15.514Z,101335.83
2019-02-16T21:45:02.761Z,101345.45
2019-02-16T21:47:39.869Z,101349.11
2019-02-16T21:50:29.569Z,101341.09
2019-02-16T21:53:28.992Z,101351.23
2019-02-16T21:56:14.988Z,101351.02
2019-02-16T21:59:02.162Z,101355.45
2019-02-16T22:01:49.420Z,101358.10
2019-02-16T22:04:35.461Z,101355.75
2019-02-16T22:07:32.436Z,101356.86
2019-02-16T22:10:07.503Z,101355.72
2019-02-16T22:13:00.945Z,101352.39
2019-02-16T22:15:29.188Z,101350.27
2019-02-16T22:18:00.448Z,101355.88
2019-02-16T22:20:28.593Z,101357.48
2019-02-16T22:22:57.007Z,101348.80
2019-02-16T22:25:25.357Z,101353.11
2019-02-16T22:27:53.645Z,101354.47
2019-02-16T22:30:21.881Z,101349.75
2019-02-16T22:32:50.227Z,101350.94
2019-02-16T22:35:18.492Z,101348.30
2019-02-16T22:37:46.863Z,101344.61
2019-02-16T22:40:15.298Z,101342.94
2019-02-16T22:42:43.526Z,101347.38
2019-02-16T22:45:11.733Z,101352.09
2019-02-16T22:47:40.202Z,101346.73
2019-02-16T22:50:10.111Z,101349.13
2019-02-16T22:52:38.346Z,101354.86
2019-02-16T22:55:06.766Z,101351.41
2019-02-16T22:57:35.124Z,101352.61
2019-02-16T23:00:03.538Z,101354.71
2019-02-16T23:02:31.681Z,101354.54
2019-02-16T23:04:59.915Z,101356.87
2019-02-16T23:07:28.214Z,101353.97
2019-02-16T23:09:56.427Z,101355.02
2019-02-16T23:12:24.815Z,101360.30
2019-02-16T23:14:52.973Z,101362.45
2019-02-16T23:17:21.280Z,101356.61
2019-02-16T23:19:49.471Z,101364.17
2019-02-16T23:22:17.807Z,101353.52
2019-02-16T23:24:46.458Z,101360.20
2019-02-16T23:27:14.576Z,101358.23
2019-02-16T23:29:42.856Z,101362.59
2019-02-16T23:32:17.437Z,101364.92
2019-02-16T23:34:45.646Z,101365.23
2019-02-16T23:37:13.884Z,101358.28
2019-02-16T23:39:42.100Z,101360.92
2019-02-16T23:42:10.545Z,101361.24
2019-02-16T23:44:38.877Z,101365.42
2019-02-16T23:47:07.120Z,101363.88
2019-02-16T23:49:35.391Z,101362.79
2019-02-16T23:52:10.816Z,101353.92
2019-02-16T23:54:39.366Z,101355.87
2019-02-16T23:57:07.598Z,101355.96
2019-02-16T23:59:36.054Z,101351.08
